createdAt,value
2018-09-01T00:02:18.600Z,98658.67
2018-09-01T00:04:49.491Z,98650.77
2018-09-01T00:07:20.706Z,98648.98
2018-09-01T00:09:50.547Z,98641.77
2018-09-01T00:12:20.996Z,98636.33
2018-09-01T00:14:50.881Z,98629.50
2018-09-01T00:17:29.042Z,98625.08
2018-09-01T00:20:01.410Z,98634.34
2018-09-01T00:22:32.076Z,98631.48
2018-09-01T00:25:05.372Z,98635.64
2018-09-01T00:27:35.400Z,98632.28
2018-09-01T00:30:05.249Z,98634.53
2018-09-01T00:32:34.933Z,98631.09
2018-09-01T00:35:05.134Z,98628.46
2018-09-01T00:37:40.611Z,98631.91
2018-09-01T00:40:10.551Z,98626.94
2018-09-01T00:42:41.677Z,98631.70
2018-09-01T00:45:11.349Z,98632.34
2018-09-01T00:47:41.162Z,98631.02
2018-09-01T00:50:11.073Z,98632.08
2018-09-01T00:52:41.190Z,98625.97
2018-09-01T00:55:16.028Z,98632.08
2018-09-01T00:57:45.743Z,98634.33
2018-09-01T01:00:15.741Z,98634.50
2018-09-01T01:02:45.656Z,98633.70
2018-09-01T01:05:15.429Z,98632.13
2018-09-01T01:07:45.210Z,98636.66
2018-09-01T01:10:15.243Z,98644.09
2018-09-01T01:12:45.593Z,98647.71
2018-09-01T01:15:15.290Z,98646.25
2018-09-01T01:17:45.002Z,98655.17
2018-09-01T01:20:14.691Z,98657.80
2018-09-01T01:22:44.371Z,98656.49
2018-09-01T01:25:14.504Z,98656.88
2018-09-01T01:27:44.145Z,98657.80
2018-09-01T01:30:13.845Z,98663.23
2018-09-01T01:32:43.944Z,98658.70
2018-09-01T01:35:13.623Z,98658.91
2018-09-01T01:37:43.398Z,98657.05
2018-09-01T01:40:13.052Z,98660.02
2018-09-01T01:42:43.219Z,98659.81
2018-09-01T01:45:12.950Z,98663.50
2018-09-01T01:47:42.706Z,98661.72
2018-09-01T01:50:12.914Z,98664.14
2018-09-01T01:52:42.952Z,98659.08
2018-09-01T01:55:12.662Z,98665.78
2018-09-01T01:57:47.530Z,98667.57
2018-09-01T02:00:17.300Z,98670.41
2018-09-01T02:02:49.247Z,98674.83
2018-09-01T02:05:22.100Z,98674.23
2018-09-01T02:07:51.786Z,98680.09
2018-09-01T02:10:21.471Z,98680.94
2018-09-01T02:12:51.166Z,98679.83
2018-09-01T02:15:25.137Z,98676.19
2018-09-01T02:17:55.751Z,98671.86
2018-09-01T02:25:47.974Z,98668.02
2018-09-01T02:28:17.993Z,98671.44
2018-09-01T02:30:47.706Z,98665.16
2018-09-01T02:33:17.416Z,98668.48
2018-09-01T02:35:47.057Z,98668.23
2018-09-01T02:38:19.106Z,98671.14
2018-09-01T02:40:49.100Z,98668.78
2018-09-01T02:43:20.662Z,98664.42
2018-09-01T02:45:50.334Z,98665.27
2018-09-01T02:48:20.280Z,98666.62
2018-09-01T02:50:49.953Z,98666.76
2018-09-01T02:53:20.361Z,98670.91
2018-09-01T02:55:50.071Z,98670.58
2018-09-01T02:58:21.219Z,98675.20
2018-09-01T03:00:56.025Z,98677.82
2018-09-01T03:03:25.760Z,98672.14
2018-09-01T03:06:00.177Z,98669.58
2018-09-01T03:08:30.018Z,98671.83
2018-09-01T03:10:59.751Z,98670.44
2018-09-01T03:24:27.119Z,98670.58
2018-09-01T03:26:56.791Z,98670.20
2018-09-01T03:29:26.439Z,98670.31
2018-09-01T03:31:56.165Z,98667.22
2018-09-01T03:34:27.194Z,98669.20
2018-09-01T03:36:56.919Z,98668.52
2018-09-01T03:39:26.608Z,98673.39
2018-09-01T03:41:56.340Z,98676.98
2018-09-01T03:44:26.029Z,98680.16
2018-09-01T03:46:57.227Z,98676.91
2018-09-01T03:52:05.121Z,98680.92
2018-09-01T03:54:35.111Z,98681.86
2018-09-01T03:57:05.337Z,98682.52
2018-09-01T03:59:35.135Z,98684.10
2018-09-01T04:02:05.380Z,98682.79
2018-09-01T04:04:35.044Z,98676.61
2018-09-01T04:07:06.349Z,98681.80
2018-09-01T04:09:36.065Z,98680.02
2018-09-01T04:12:06.019Z,98674.02
2018-09-01T04:14:35.692Z,98676.46
2018-09-01T04:17:06.324Z,98669.63
2018-09-01T04:19:36.049Z,98670.75
2018-09-01T04:22:05.774Z,98672.83
2018-09-01T04:24:42.741Z,98680.44
2018-09-01T04:27:12.459Z,98670.70
2018-09-01T04:29:42.159Z,98678.04
2018-09-01T04:32:11.922Z,98682.69
2018-09-01T04:34:42.025Z,98683.88
2018-09-01T04:37:11.674Z,98692.27
2018-09-01T04:39:41.439Z,98688.59
2018-09-01T04:42:12.479Z,98687.86
2018-09-01T04:44:42.200Z,98686.35
2018-09-01T04:47:12.043Z,98686.16
2018-09-01T04:49:47.325Z,98686.08
2018-09-01T04:52:17.088Z,98685.70
2018-09-01T04:54:46.781Z,98687.94
2018-09-01T04:57:16.522Z,98694.16
2018-09-01T04:59:46.789Z,98696.67
2018-09-01T05:02:16.787Z,98697.98
2018-09-01T05:04:47.291Z,98701.66
2018-09-01T05:07:17.159Z,98697.79
2018-09-01T05:09:46.817Z,98705.20
2018-09-01T05:12:18.141Z,98707.84
2018-09-01T05:14:48.459Z,98713.91
2018-09-01T05:17:18.160Z,98706.68
2018-09-01T05:19:47.906Z,98713.83
2018-09-01T05:22:17.639Z,98712.51
2018-09-01T05:24:49.184Z,98716.45
2018-09-01T05:27:18.861Z,98719.81
2018-09-01T05:29:48.804Z,98721.29
2018-09-01T05:32:18.460Z,98708.84
2018-09-01T05:34:48.324Z,98711.66
2018-09-01T05:37:18.589Z,98716.45
2018-09-01T05:39:48.321Z,98714.48
2018-09-01T05:42:18.211Z,98716.92
2018-09-01T05:44:54.540Z,98714.95
2018-09-01T05:47:24.659Z,98718.34
2018-09-01T05:49:55.486Z,98719.38
2018-09-01T05:52:25.736Z,98723.41
2018-09-01T05:55:13.133Z,98582.10
2018-09-01T05:57:43.734Z,98733.56
2018-09-01T06:00:13.863Z,98737.33
2018-09-01T06:02:45.943Z,98735.16
2018-09-01T06:05:16.192Z,98730.48
2018-09-01T06:07:47.344Z,98725.22
2018-09-01T06:10:18.526Z,98727.28
2018-09-01T06:12:48.920Z,98726.24
2018-09-01T06:15:23.292Z,98731.97
2018-09-01T06:17:53.560Z,98733.20
2018-09-01T06:20:26.174Z,98738.05
2018-09-01T06:22:56.626Z,98736.73
2018-09-01T06:25:27.116Z,98726.42
2018-09-01T06:28:15.104Z,98735.61
2018-09-01T06:30:48.748Z,98735.97
2018-09-01T06:33:18.724Z,98735.28
2018-09-01T06:35:52.388Z,98741.19
2018-09-01T06:38:23.072Z,98738.89
2018-09-01T06:40:59.720Z,98742.31
2018-09-01T06:43:35.229Z,98742.75
2018-09-01T06:46:05.538Z,98743.28
2018-09-01T06:48:43.796Z,98646.75
2018-09-01T06:51:14.938Z,98747.34
2018-09-01T06:53:46.795Z,98749.05
2018-09-01T06:56:20.590Z,98755.54
2018-09-01T06:58:52.832Z,98756.94
2018-09-01T07:01:24.800Z,98758.92
2018-09-01T07:03:58.447Z,98768.90
2018-09-01T07:06:34.897Z,98767.94
2018-09-01T07:09:07.797Z,98774.58
2018-09-01T07:11:40.313Z,98779.16
2018-09-01T07:14:11.405Z,98784.28
2018-09-01T07:16:43.016Z,98791.83
2018-09-01T07:22:09.990Z,98798.32
2018-09-01T07:27:37.288Z,98802.34
2018-09-01T07:30:15.313Z,98808.38
2018-09-01T07:32:53.990Z,98803.53
2018-09-01T07:35:25.904Z,98804.47
2018-09-01T07:37:56.797Z,98805.64
2018-09-01T07:40:31.371Z,98813.14
2018-09-01T07:43:02.297Z,98813.73
2018-09-01T07:45:34.380Z,98812.63
2018-09-01T07:48:07.827Z,98812.53
2018-09-01T07:50:40.324Z,98810.13
2018-09-01T07:53:23.223Z,98817.94
2018-09-01T07:55:57.043Z,98822.04
2018-09-01T07:58:31.208Z,98826.44
2018-09-01T08:01:02.699Z,98823.88
2018-09-01T08:03:32.949Z,98828.09
2018-09-01T08:06:04.760Z,98839.05
2018-09-01T08:08:47.773Z,98825.58
2018-09-01T08:11:19.179Z,98831.74
2018-09-01T08:13:51.028Z,98837.72
2018-09-01T08:16:20.813Z,98837.78
2018-09-01T08:18:50.735Z,98841.42
2018-09-01T08:21:23.322Z,98847.73
2018-09-01T08:23:56.092Z,98849.83
2018-09-01T08:26:26.233Z,98842.34
2018-09-01T08:28:56.776Z,98844.09
2018-09-01T08:31:29.941Z,98846.65
2018-09-01T08:34:01.856Z,98847.81
2018-09-01T08:36:32.096Z,98851.80
2018-09-01T08:39:04.395Z,98854.37
2018-09-01T08:41:39.201Z,98865.76
2018-09-01T08:47:02.375Z,98871.00
2018-09-01T08:49:33.146Z,98877.17
2018-09-01T08:52:07.273Z,98885.68
2018-09-01T08:54:37.892Z,98885.02
2018-09-01T08:57:08.406Z,98887.50
2018-09-01T08:59:38.235Z,98888.73
2018-09-01T09:02:08.646Z,98887.56
2018-09-01T09:04:38.392Z,98893.06
2018-09-01T09:07:11.411Z,98893.10
2018-09-01T09:09:41.305Z,98895.03
2018-09-01T09:12:11.284Z,98900.19
2018-09-01T09:14:41.907Z,98903.22
2018-09-01T09:17:12.711Z,98902.36
2018-09-01T09:19:43.369Z,98901.17
2018-09-01T09:22:14.514Z,98896.39
2018-09-01T09:24:44.292Z,98901.05
2018-09-01T09:27:19.355Z,98892.66
2018-09-01T09:29:58.144Z,98901.20
2018-09-01T09:32:28.153Z,98897.84
2018-09-01T09:34:58.970Z,98891.83
2018-09-01T09:37:28.814Z,98894.72
2018-09-01T09:39:59.368Z,98883.25
2018-09-01T09:42:29.513Z,98880.72
2018-09-01T09:45:02.338Z,98879.11
2018-09-01T09:47:33.700Z,98875.44
2018-09-01T09:50:07.430Z,98868.89
2018-09-01T09:52:38.001Z,98869.14
2018-09-01T09:55:11.889Z,98869.33
2018-09-01T09:57:46.836Z,98864.05
2018-09-01T10:00:27.478Z,98856.56
2018-09-01T10:03:07.315Z,98855.34
2018-09-01T10:05:59.207Z,98854.20
2018-09-01T10:11:38.353Z,98848.47
2018-09-01T10:14:22.822Z,98840.13
2018-09-01T10:24:05.983Z,98839.27
2018-09-01T10:26:37.306Z,98836.64
2018-09-01T10:29:08.768Z,98832.64
2018-09-01T10:31:39.269Z,98828.63
2018-09-01T10:34:11.662Z,98840.66
2018-09-01T10:36:43.451Z,98841.87
2018-09-01T10:39:14.187Z,98818.97
2018-09-01T10:41:45.170Z,98832.60
2018-09-01T10:46:56.467Z,98829.58
2018-09-01T10:49:26.265Z,98826.01
2018-09-01T10:51:56.605Z,98831.11
2018-09-01T10:54:26.632Z,98831.69
2018-09-01T10:56:56.418Z,98838.26
2018-09-01T10:59:30.076Z,98827.09
2018-09-01T11:02:00.047Z,98818.20
2018-09-01T11:04:30.703Z,98825.27
2018-09-01T11:07:01.633Z,98832.28
2018-09-01T11:09:31.276Z,98823.27
2018-09-01T11:12:01.344Z,98836.00
2018-09-01T11:14:31.808Z,98831.55
2018-09-01T11:17:01.614Z,98830.11
2018-09-01T11:19:32.967Z,98831.90
2018-09-01T11:22:03.740Z,98823.16
2018-09-01T11:24:34.137Z,98821.27
2018-09-01T11:27:05.378Z,98830.89
2018-09-01T11:29:35.255Z,98830.42
2018-09-01T11:32:05.060Z,98831.73
2018-09-01T11:34:44.460Z,98840.02
2018-09-01T11:37:14.200Z,98834.02
2018-09-01T11:39:46.286Z,98828.19
2018-09-01T11:42:16.076Z,98828.69
2018-09-01T11:44:55.801Z,98819.36
2018-09-01T11:47:26.085Z,98826.77
2018-09-01T11:49:57.566Z,98828.33
2018-09-01T11:52:30.704Z,98823.62
2018-09-01T11:55:11.725Z,98823.98
2018-09-01T11:57:42.574Z,98832.58
2018-09-01T12:00:23.389Z,98833.55
2018-09-01T12:02:54.698Z,98830.05
2018-09-01T12:05:24.581Z,98828.84
2018-09-01T12:07:55.177Z,98834.48
2018-09-01T12:10:24.905Z,98824.10
2018-09-01T12:12:56.370Z,98842.66
2018-09-01T12:15:26.017Z,98831.62
2018-09-01T12:17:57.751Z,98838.00
2018-09-01T12:20:28.094Z,98838.48
2018-09-01T12:22:58.722Z,98840.92
2018-09-01T12:25:29.285Z,98827.48
2018-09-01T12:27:59.330Z,98823.84
2018-09-01T12:30:31.477Z,98819.77
2018-09-01T12:33:06.210Z,98827.16
2018-09-01T12:35:42.255Z,98820.14
2018-09-01T12:38:17.924Z,98818.80
2018-09-01T12:40:48.504Z,98821.77
2018-09-01T12:44:08.087Z,98816.41
2018-09-01T12:46:39.612Z,98822.31
2018-09-01T12:49:10.378Z,98822.31
2018-09-01T12:51:40.797Z,98815.80
2018-09-01T12:54:10.589Z,98821.34
2018-09-01T12:56:40.695Z,98819.31
2018-09-01T12:59:11.490Z,98822.96
2018-09-01T13:01:41.309Z,98820.91
2018-09-01T13:04:11.016Z,98817.64
2018-09-01T13:06:41.373Z,98812.61
2018-09-01T13:09:29.829Z,98821.73
2018-09-01T13:12:17.711Z,98807.18
2018-09-01T13:14:50.041Z,98812.25
2018-09-01T13:17:20.400Z,98806.34
2018-09-01T13:19:54.685Z,98811.00
2018-09-01T13:22:30.818Z,98807.30
2018-09-01T13:25:02.272Z,98806.92
2018-09-01T13:27:38.235Z,98801.14
2018-09-01T13:30:09.797Z,98806.05
2018-09-01T13:32:39.462Z,98808.42
2018-09-01T13:35:12.916Z,98806.27
2018-09-01T13:37:43.979Z,98808.94
2018-09-01T13:40:15.975Z,98813.55
2018-09-01T13:42:49.424Z,98807.67
2018-09-01T13:45:19.263Z,98807.91
2018-09-01T13:50:33.050Z,98811.39
2018-09-01T13:53:09.515Z,98805.69
2018-09-01T13:55:42.382Z,98809.77
2018-09-01T13:58:13.402Z,98807.95
2018-09-01T14:00:48.378Z,98809.17
2018-09-01T14:03:18.385Z,98809.56
2018-09-01T14:05:50.280Z,98809.77
2018-09-01T14:08:21.614Z,98815.89
2018-09-01T14:10:52.029Z,98800.55
2018-09-01T14:13:21.859Z,98807.32
2018-09-01T14:15:51.558Z,98801.62
2018-09-01T14:18:22.391Z,98799.42
2018-09-01T14:20:53.741Z,98801.11
2018-09-01T14:23:25.620Z,98797.33
2018-09-01T14:25:58.089Z,98792.28
2018-09-01T14:28:27.772Z,98784.48
2018-09-01T14:33:37.392Z,98786.14
2018-09-01T14:36:08.185Z,98788.45
2018-09-01T14:38:38.061Z,98791.47
2018-09-01T14:41:12.303Z,98786.91
2018-09-01T14:43:42.558Z,98786.73
2018-09-01T14:46:13.373Z,98787.92
2018-09-01T14:48:43.136Z,98793.46
2018-09-01T14:56:24.593Z,98787.69
2018-09-01T14:58:55.680Z,98777.41
2018-09-01T15:07:06.737Z,98785.66
2018-09-01T15:09:43.887Z,98789.45
2018-09-01T15:12:17.324Z,98785.67
2018-09-01T15:14:49.173Z,98783.50
2018-09-01T15:17:19.135Z,98782.95
2018-09-01T15:19:50.337Z,98780.19
2018-09-01T15:22:22.648Z,98778.55
2018-09-01T15:24:53.608Z,98777.42
2018-09-01T15:27:25.155Z,98770.42
2018-09-01T15:29:57.652Z,98778.56
2018-09-01T15:32:28.783Z,98779.59
2018-09-01T15:34:59.348Z,98772.13
2018-09-01T15:37:34.326Z,98779.66
2018-09-01T15:40:13.284Z,98770.65
2018-09-01T15:42:45.361Z,98777.81
2018-09-01T15:45:15.683Z,98780.02
2018-09-01T15:47:47.493Z,98772.64
2018-09-01T15:50:18.422Z,98783.43
2018-09-01T15:52:48.525Z,98779.09
2018-09-01T15:55:20.699Z,98776.70
2018-09-01T15:57:51.048Z,98779.89
2018-09-01T16:00:22.878Z,98781.73
2018-09-01T16:02:57.841Z,98780.05
2018-09-01T16:05:27.867Z,98782.23
2018-09-01T16:07:58.113Z,98781.48
2018-09-01T16:10:28.837Z,98778.61
2018-09-01T16:13:03.651Z,98781.89
2018-09-01T16:15:34.364Z,98772.45
2018-09-01T16:18:05.961Z,98770.59
2018-09-01T16:20:37.013Z,98780.11
2018-09-01T16:23:09.822Z,98778.89
2018-09-01T16:28:01.625Z,98776.48
2018-09-01T16:30:49.473Z,98769.02
2018-09-01T16:33:19.916Z,98776.34
2018-09-01T16:39:09.663Z,98774.85
2018-09-01T16:41:52.186Z,98773.05
2018-09-01T16:44:29.829Z,98777.84
2018-09-01T16:47:09.345Z,98778.97
2018-09-01T16:49:40.771Z,98776.92
2018-09-01T16:52:17.764Z,98776.51
2018-09-01T16:54:50.768Z,98775.53
2018-09-01T16:57:21.512Z,98773.85
2018-09-01T16:59:52.607Z,98774.77
2018-09-01T17:04:45.547Z,98775.68
2018-09-01T17:07:18.207Z,98780.86
2018-09-01T17:09:49.413Z,98775.30
2018-09-01T17:15:11.297Z,98779.99
2018-09-01T17:17:47.936Z,98779.58
2018-09-01T17:20:48.472Z,98784.38
2018-09-01T17:23:21.675Z,98772.52
2018-09-01T17:25:52.367Z,98783.84
2018-09-01T17:31:13.873Z,98780.94
2018-09-01T17:33:51.516Z,98781.45
2018-09-01T17:36:22.732Z,98776.11
2018-09-01T17:38:54.906Z,98788.20
2018-09-01T17:41:27.844Z,98788.65
2018-09-01T17:43:58.517Z,98781.63
2018-09-01T17:46:29.131Z,98786.88
2018-09-01T17:49:05.930Z,98789.02
2018-09-01T17:51:41.683Z,98791.25
2018-09-01T17:54:13.826Z,98791.46
2018-09-01T17:56:46.226Z,98794.32
2018-09-01T17:59:18.312Z,98795.36
2018-09-01T18:01:49.216Z,98800.44
2018-09-01T18:04:23.020Z,98801.70
2018-09-01T18:07:02.248Z,98802.98
2018-09-01T18:09:33.799Z,98805.22
2018-09-01T18:12:06.503Z,98806.98
2018-09-01T18:14:36.625Z,98807.60
2018-09-01T18:17:14.800Z,98808.95
2018-09-01T18:19:46.211Z,98803.47
2018-09-01T18:22:17.608Z,98806.88
2018-09-01T18:24:48.251Z,98806.05
2018-09-01T18:27:20.123Z,98810.53
2018-09-01T18:29:51.532Z,98806.36
2018-09-01T18:32:22.222Z,98810.33
2018-09-01T18:34:54.100Z,98809.97
2018-09-01T18:37:24.300Z,98807.59
2018-09-01T18:39:58.905Z,98812.06
2018-09-01T18:42:29.407Z,98816.74
2018-09-01T18:45:00.836Z,98816.53
2018-09-01T18:47:32.943Z,98814.59
2018-09-01T18:50:06.392Z,98811.95
2018-09-01T18:52:39.869Z,98810.16
2018-09-01T18:55:32.143Z,98814.02
2018-09-01T19:01:47.606Z,98814.16
2018-09-01T19:16:48.576Z,98813.20
2018-09-01T19:19:20.401Z,98815.27
2018-09-01T19:21:51.648Z,98825.48
2018-09-01T19:24:24.175Z,98829.08
2018-09-01T19:26:57.953Z,98824.03
2018-09-01T19:29:44.483Z,98834.98
2018-09-01T19:32:16.804Z,98832.71
2018-09-01T19:34:47.371Z,98839.66
2018-09-01T19:37:19.447Z,98833.91
2018-09-01T19:39:56.028Z,98837.02
2018-09-01T19:42:28.521Z,98837.63
2018-09-01T19:45:02.506Z,98840.98
2018-09-01T19:47:32.944Z,98834.37
2018-09-01T19:50:06.278Z,98830.27
2018-09-01T19:55:30.992Z,98826.06
2018-09-01T19:58:10.573Z,98829.31
2018-09-01T20:00:43.724Z,98831.59
2018-09-01T20:03:17.228Z,98802.09
2018-09-01T20:05:53.041Z,98838.56
2018-09-01T20:08:25.256Z,98837.91
2018-09-01T20:10:57.445Z,98835.73
2018-09-01T20:13:28.411Z,98831.62
2018-09-01T20:15:59.637Z,98819.72
2018-09-01T20:18:33.179Z,98829.73
2018-09-01T20:21:08.137Z,98833.92
2018-09-01T20:24:01.502Z,98841.00
2018-09-01T20:26:31.966Z,98844.38
2018-09-01T20:29:05.293Z,98846.41
2018-09-01T20:34:05.565Z,98838.14
2018-09-01T20:36:36.506Z,98838.85
2018-09-01T20:39:12.497Z,98841.87
2018-09-01T20:41:49.542Z,98834.17
2018-09-01T20:44:22.393Z,98836.91
2018-09-01T20:46:56.375Z,98833.80
2018-09-01T20:49:27.461Z,98840.39
2018-09-01T20:51:58.591Z,98842.66
2018-09-01T20:54:37.436Z,98844.83
2018-09-01T20:57:08.500Z,98837.02
2018-09-01T20:59:43.400Z,98837.72
2018-09-01T21:02:20.686Z,98842.39
2018-09-01T21:04:51.303Z,98837.18
2018-09-01T21:09:47.356Z,98837.78
2018-09-01T21:12:18.197Z,98834.63
2018-09-01T21:14:48.603Z,98829.67
2018-09-01T21:17:19.456Z,98842.87
2018-09-01T21:19:51.384Z,98827.14
2018-09-01T21:22:25.715Z,98835.16
2018-09-01T21:24:57.731Z,98831.95
2018-09-01T21:27:30.093Z,98833.61
2018-09-01T21:30:00.754Z,98832.97
2018-09-01T21:32:33.238Z,98829.98
2018-09-01T21:35:04.177Z,98837.05
2018-09-01T21:37:35.204Z,98835.36
2018-09-01T21:40:05.197Z,98829.86
2018-09-01T21:42:36.196Z,98833.07
2018-09-01T21:45:08.208Z,98829.13
2018-09-01T21:47:40.001Z,98796.36
2018-09-01T21:53:42.576Z,98826.81
2018-09-01T21:56:13.911Z,98824.55
2018-09-01T21:58:44.492Z,98830.92
2018-09-01T22:01:20.312Z,98830.43
2018-09-01T22:03:53.191Z,98832.09
2018-09-01T22:06:29.695Z,98836.66
2018-09-01T22:09:01.860Z,98834.27
2018-09-01T22:11:33.168Z,98834.23
2018-09-01T22:14:05.259Z,98835.66
2018-09-01T22:16:35.261Z,98838.98
2018-09-01T22:19:05.997Z,98845.55
2018-09-01T22:21:37.090Z,98843.14
2018-09-01T22:24:08.462Z,98841.59
2018-09-01T22:26:38.228Z,98844.33
2018-09-01T22:29:09.240Z,98846.88
2018-09-01T22:31:40.507Z,98845.11
2018-09-01T22:34:13.286Z,98840.09
2018-09-01T22:36:44.632Z,98839.48
2018-09-01T22:41:57.658Z,98842.98
2018-09-01T22:44:29.269Z,98846.55
2018-09-01T22:47:03.304Z,98839.02
2018-09-01T22:49:40.209Z,98839.42
2018-09-01T22:52:14.592Z,98836.50
2018-09-01T22:54:45.515Z,98834.08
2018-09-01T22:57:16.822Z,98827.73
2018-09-01T23:02:42.334Z,98824.50
2018-09-01T23:05:16.898Z,98818.00
2018-09-01T23:07:48.768Z,98818.24
2018-09-01T23:14:51.584Z,98819.31
2018-09-01T23:17:23.211Z,98809.27
2018-09-01T23:19:59.630Z,98816.80
2018-09-01T23:22:36.360Z,98806.25
2018-09-01T23:25:09.987Z,98807.54
2018-09-01T23:27:44.222Z,98808.95
2018-09-01T23:30:18.752Z,98804.14
2018-09-01T23:35:32.193Z,98797.37
2018-09-01T23:38:02.773Z,98795.39
2018-09-01T23:40:32.550Z,98792.66
2018-09-01T23:43:03.624Z,98790.74
2018-09-01T23:45:34.527Z,98791.11
2018-09-01T23:48:06.423Z,98789.67
2018-09-01T23:50:37.200Z,98786.41
2018-09-01T23:53:08.059Z,98788.20
2018-09-01T23:55:39.220Z,98788.20
2018-09-01T23:58:10.084Z,98787.98
